Nearby METAR Reports

 

KSJC - San Jose, California, USA
Distance from station: NE 9mi, 14km
Updated: Sun, 23-Nov-2014 12:53pm PST
Mostly cloudy
Mostly cloudy
 Wind from WNW
Wind: WNW 9 mph , 15 km/h
Temperature: 63°F , 17°C
Dew Point: 39°F , 4°C
Humidity: 42%
Barometer: 30.29 inHg , 1025.7 hPa
Clouds: Mostly cloudy
Visibility: 10 miles , 16 km
Cloud details: Mostly cloudy 15000 ft
2014/11/23 20:53 KSJC 232053Z 29008KT 10SM BKN150 17/04 A3029 RMK AO2 SLP256 T01670044 58015
KNUQ - Moffett Nas/Mtn, California, USA
Distance from station: N 9mi, 14km
Updated: Sun, 23-Nov-2014 12:56pm PST
Clear
Clear
 Wind from calm
Wind: Calm
Temperature: 64°F , 18°C
Dew Point: 39°F , 4°C
Humidity: 40%
Barometer: 30.30 inHg , 1026.1 hPa
Clouds: Clear
Visibility: 10 miles , 16 km
2014/11/23 20:56 KNUQ 232056Z AUTO 00000KT 10SM CLR 18/04 A3030 RMK AO2 SLP263 T01780039 58015 TSNO
 
KPAO - Palo Alto, California, USA
Distance from station: NNW 14mi, 23km
Updated: Sun, 23-Nov-2014 12:47pm PST
Mostly cloudy
Mostly cloudy
 Wind from varies
Wind: varies 5 mph , 7 km/h
Temperature: 66°F , 19°C
Dew Point: 43°F , 6°C
Humidity: 43%
Barometer: 30.30 inHg , 1026.1 hPa
Clouds: Mostly cloudy
Visibility: 30 miles , 48 km
Cloud details: Mostly cloudy 20000 ft
2014/11/23 20:47 KPAO 232047Z VRB04KT 30SM BKN200 19/06 A3030
KRHV - San Jose/Reid, California, USA
Distance from station: ENE 12mi, 19km
Updated: Sun, 23-Nov-2014 12:47pm PST
Overcast
Overcast
 Wind from calm
Wind: Calm
Temperature: 64°F , 18°C
Dew Point: 45°F , 7°C
Humidity: 49%
Barometer: 30.30 inHg , 1026.1 hPa
Clouds: Overcast
Visibility: 10 miles , 16 km
Cloud details: Overcast 20000 ft
2014/11/23 20:47 KRHV 232047Z 00000KT 10SM OVC200 18/07 A3030
 
KOAK - Oakland, California, USA
Distance from station: NNW 31mi, 50km
Updated: Sun, 23-Nov-2014 12:53pm PST
Mostly cloudy
Mostly cloudy
 Wind from SSW
Wind: SSW 6 mph , 9 km/h
Temperature: 61°F , 16°C
Dew Point: 43°F , 6°C
Humidity: 52%
Barometer: 30.29 inHg , 1025.7 hPa
Clouds: Mostly cloudy
Visibility: 10 miles , 16 km
Cloud details: Mostly cloudy 10000 ft
Mostly cloudy 25000 ft
2014/11/23 20:53 KOAK 232053Z 21005KT 10SM BKN100 BKN250 16/06 A3029 RMK AO2 SLP256 T01560061 58019 $
KSQL - San Carlos Airpo, California, USA
Distance from station: NW 21mi, 34km
Updated: Sun, 23-Nov-2014 12:50pm PST
Mostly cloudy
Mostly cloudy
 Wind from calm
Wind: Calm
Temperature: 63°F , 17°C
Dew Point: 41°F , 5°C
Humidity: 45%
Barometer: 30.31 inHg , 1026.4 hPa
Clouds: Mostly cloudy
Visibility: 10 miles , 16 km
Cloud details: Mostly cloudy 20000 ft
2014/11/23 20:50 KSQL 232050Z 00000KT 10SM BKN200 17/05 A3031
 
KSFO - San Francisco, California, USA
Distance from station: NW 30mi, 49km
Updated: Sun, 23-Nov-2014 12:56pm PST
Mostly cloudy
Mostly cloudy
 Wind from calm
Wind: Calm
Temperature: 61°F , 16°C
Dew Point: 46°F , 8°C
Humidity: 59%
Barometer: 30.29 inHg , 1025.7 hPa
Clouds: Mostly cloudy
Visibility: 10 miles , 16 km
Cloud details: Partly cloudy 15000 ft
Mostly cloudy 18000 ft
2014/11/23 20:56 KSFO 232056Z 00000KT 10SM SCT150 BKN180 16/08 A3029 RMK AO2 SLP256 T01610078 58019
KE16 - San Martin, California, USA
Distance from station: ESE 27mi, 43km
Updated: Sun, 23-Nov-2014 1:35pm PST
Clear
Clear
 Wind from NW
Wind: NW 7 mph , 11 km/h
Temperature: 63°F , 17°C
Dew Point: 41°F , 5°C
Humidity: 45%
Barometer: 30.29 inHg , 1025.7 hPa
Clouds: Clear
Visibility: 10 miles , 16 km
2014/11/23 21:35 KE16 232135Z AUTO 32006KT 10SM CLR 17/05 A3029 RMK AO2
 
KWVI - Watsonville, California, USA
Distance from station: SSE 27mi, 44km
Updated: Sun, 23-Nov-2014 12:53pm PST
Clear
Clear
 Wind from ENE
Wind: ENE 6 mph , 9 km/h
Temperature: 68°F , 20°C
Dew Point: 48°F , 9°C
Humidity: 49%
Barometer: 30.27 inHg , 1025.1 hPa
Clouds: Clear
Visibility: 10 miles , 16 km
2014/11/23 20:53 KWVI 232053Z AUTO 06005KT 10SM CLR 20/09 A3027 RMK AO2 SLP251 T02000089 58016
KHAF - Half Moon Bay, California, USA
Distance from station: WNW 31mi, 50km
Updated: Sun, 23-Nov-2014 1:35pm PST
Clear
Clear
 Wind from NW
Wind: NW 9 mph , 15 km/h
Temperature: 63°F , 17°C
Dew Point: 48°F , 9°C
Humidity: 59%
Barometer: 30.28 inHg , 1025.4 hPa
Clouds: Clear
Visibility: 8 miles , 13 km
2014/11/23 21:35 KHAF 232135Z AUTO 32008KT 8SM CLR 17/09 A3028 RMK AO2
 
KHWD - Hayward, California, USA
Distance from station: N 28mi, 44km
Updated: Sun, 23-Nov-2014 12:54pm PST
Clear
Clear
 Wind from WSW
Wind: WSW 5 mph , 7 km/h
Temperature: 57°F , 14°C
Dew Point: 45°F , 7°C
Humidity: 63%
Barometer: 30.29 inHg , 1025.7 hPa
Clouds: Clear
Visibility: 10 miles , 16 km
2014/11/23 20:54 KHWD 232054Z 24004KT 10SM CLR 14/07 A3029 RMK AO2 SLP265 T01440072 58018
KLVK - Livermore, California, USA
Distance from station: NNE 31mi, 51km
Updated: Sun, 23-Nov-2014 12:53pm PST
Clear
Clear
 Wind from ENE
Wind: ENE 9 mph , 15 km/h
Temperature: 64°F , 18°C
Dew Point: 37°F , 3°C
Humidity: 37%
Barometer: 30.29 inHg , 1025.7 hPa
Clouds: Clear
Visibility: 10 miles , 16 km
2014/11/23 20:53 KLVK 232053Z 06008KT 10SM CLR 18/03 A3029 RMK AO2 SLP255 T01780033 58016 $